Tortola's Pride — HO-3796 — position and weather

sailwx.info

Track history (hours):
 
Tides and Currents Weather Stations Pressure Air Temp Water Temp Dewpoint Dewpoint Depression Visibility Wind Speed Wind Dir Waves Ship Positions

Tortola's Pride

Last reported at 2016-Jul-26 10:33 UTC. Time now 2016-Jul-27 07:48 UTC.
Position N 18°24' W 064°33'.

Length 49 m; draft 2.8 m.

Type: Cargo ship. MMSI: 355921000.

Date/timePositionNaut miles runAvg speedWind from/ knotsBaromVisibWave heightAir tempDewpointWater temp
2016-Jul-26 10:33N 18°24' W 064°33'58 9.6
2016-Jul-26 04:32N 18°11' W 063°34'9 9.4
2016-Jul-26 03:32N 18°09' W 063°24'10 9.7
2016-Jul-26 02:29N 18°07' W 063°14'8 8.5
2016-Jul-26 01:30N 18°05' W 063°05'0 0.0
2016-Jul-26 00:30N 18°05' W 063°05'1 1.3
2016-Jul-25 23:33N 18°06' W 063°06'7 0.6
2016-Jul-25 12:33N 18°12' W 063°09'9 9.1
2016-Jul-25 11:32N 18°13' W 063°19'67 8.4
2016-Jul-25 03:33N 18°24' W 064°29'7 0.2
2016-Jul-23 17:11N 18°25' W 064°36'5 8.1
2016-Jul-23 16:33N 18°23' W 064°41'9 8.6
2016-Jul-23 15:33N 18°24' W 064°50'71 7.9
2016-Jul-23 06:33N 18°30' W 066°05'2 1.3
2016-Jul-23 04:34N 18°28' W 066°06'0 0.0
2016-Jul-23 03:34N 18°28' W 066°06'0 0.0
2016-Jul-23 02:33N 18°28' W 066°06'0 0.0
2016-Jul-23 01:32N 18°28' W 066°06'0 0.0
2016-Jul-23 00:29N 18°28' W 066°06'0 0.0
2016-Jul-22 23:33N 18°28' W 066°06'0 0.0
2016-Jul-22 22:33N 18°28' W 066°06'0 0.0
2016-Jul-22 21:34N 18°28' W 066°06'0 0.0
2016-Jul-22 20:33N 18°28' W 066°06'0 0.0
2016-Jul-22 19:34N 18°28' W 066°06'0 0.0
2016-Jul-22 18:34N 18°28' W 066°06'0 0.0
2016-Jul-22 17:33N 18°28' W 066°06'0 0.0
2016-Jul-22 16:33N 18°28' W 066°06'0 0.0
2016-Jul-22 15:34N 18°28' W 066°06'0 0.0
2016-Jul-22 14:33N 18°28' W 066°06'0 0.0
2016-Jul-22 13:34N 18°28' W 066°06'0 0.0
2016-Jul-22 12:33N 18°28' W 066°06'70 8.7
2016-Jul-22 04:33N 18°25' W 064°53'9 9.3
2016-Jul-22 03:33N 18°23' W 064°43'9 0.9
2016-Jul-21 18:28N 18°25' W 064°35'12 2.9
2016-Jul-21 14:28N 18°31' W 064°24'9 9.6
2016-Jul-21 13:33N 18°25' W 064°32'2 0.0
2016-Jul-20 03:33N 18°25' W 064°33'7 6.9
2016-Jul-20 02:32N 18°27' W 064°26'0 0.0
2016-Jul-20 00:32N 18°27' W 064°26'9 1.3
2016-Jul-19 17:30N 18°25' W 064°36'1 0.1
2016-Jul-19 09:18N 18°26' W 064°37'0 0.0
2016-Jul-19 07:19N 18°26' W 064°37'0 0.0
2016-Jul-19 06:22N 18°26' W 064°37'0 0.0
2016-Jul-19 03:22N 18°26' W 064°37'0 0.0
2016-Jul-18 08:05N 18°26' W 064°37'0 0.0
2016-Jul-18 07:29N 18°26' W 064°37'0 0.0
2016-Jul-18 06:33N 18°26' W 064°37'0 0.0
2016-Jul-18 05:26N 18°26' W 064°37'0 0.0
2016-Jul-18 04:05N 18°26' W 064°37'0 0.0
2016-Jul-17 09:25N 18°26' W 064°37'0 0.0
2016-Jul-17 07:15N 18°26' W 064°37'0 0.0
2016-Jul-17 06:31N 18°26' W 064°37'0 0.0
2016-Jul-17 04:21N 18°26' W 064°37'0 0.0
2016-Jul-17 03:33N 18°26' W 064°37'0 0.0
2016-Jul-17 00:25N 18°26' W 064°37'4 0.6
2016-Jul-16 17:33N 18°23' W 064°39'8 8.1
2016-Jul-16 16:33N 18°24' W 064°48'  
Track history (hours):
 
Tides and Currents Weather Stations Pressure Air Temp Water Temp Dewpoint Dewpoint Depression Visibility Wind Speed Wind Dir Waves Ship Positions

Tortola's Pride

Last reported at 2016-Jul-26 10:33 UTC. Time now 2016-Jul-27 07:48 UTC.
Position N 18°24' W 064°33'.

Length 49 m; draft 2.8 m.

Type: Cargo ship. MMSI: 355921000.

Date/timePositionNaut miles runAvg speedWind from/ knotsBaromVisibWave heightAir tempDewpointWater temp
2016-Jul-26 10:33N 18°24' W 064°33'58 9.6
2016-Jul-26 04:32N 18°11' W 063°34'9 9.4
2016-Jul-26 03:32N 18°09' W 063°24'10 9.7
2016-Jul-26 02:29N 18°07' W 063°14'8 8.5
2016-Jul-26 01:30N 18°05' W 063°05'0 0.0
2016-Jul-26 00:30N 18°05' W 063°05'1 1.3
2016-Jul-25 23:33N 18°06' W 063°06'7 0.6
2016-Jul-25 12:33N 18°12' W 063°09'9 9.1
2016-Jul-25 11:32N 18°13' W 063°19'67 8.4
2016-Jul-25 03:33N 18°24' W 064°29'7 0.2
2016-Jul-23 17:11N 18°25' W 064°36'5 8.1
2016-Jul-23 16:33N 18°23' W 064°41'9 8.6
2016-Jul-23 15:33N 18°24' W 064°50'71 7.9
2016-Jul-23 06:33N 18°30' W 066°05'2 1.3
2016-Jul-23 04:34N 18°28' W 066°06'0 0.0
2016-Jul-23 03:34N 18°28' W 066°06'0 0.0
2016-Jul-23 02:33N 18°28' W 066°06'0 0.0
2016-Jul-23 01:32N 18°28' W 066°06'0 0.0
2016-Jul-23 00:29N 18°28' W 066°06'0 0.0
2016-Jul-22 23:33N 18°28' W 066°06'0 0.0
2016-Jul-22 22:33N 18°28' W 066°06'0 0.0
2016-Jul-22 21:34N 18°28' W 066°06'0 0.0
2016-Jul-22 20:33N 18°28' W 066°06'0 0.0
2016-Jul-22 19:34N 18°28' W 066°06'0 0.0
2016-Jul-22 18:34N 18°28' W 066°06'0 0.0
2016-Jul-22 17:33N 18°28' W 066°06'0 0.0
2016-Jul-22 16:33N 18°28' W 066°06'0 0.0
2016-Jul-22 15:34N 18°28' W 066°06'0 0.0
2016-Jul-22 14:33N 18°28' W 066°06'0 0.0
2016-Jul-22 13:34N 18°28' W 066°06'0 0.0
2016-Jul-22 12:33N 18°28' W 066°06'70 8.7
2016-Jul-22 04:33N 18°25' W 064°53'9 9.3
2016-Jul-22 03:33N 18°23' W 064°43'9 0.9
2016-Jul-21 18:28N 18°25' W 064°35'12 2.9
2016-Jul-21 14:28N 18°31' W 064°24'9 9.6
2016-Jul-21 13:33N 18°25' W 064°32'2 0.0
2016-Jul-20 03:33N 18°25' W 064°33'7 6.9
2016-Jul-20 02:32N 18°27' W 064°26'0 0.0
2016-Jul-20 00:32N 18°27' W 064°26'9 1.3
2016-Jul-19 17:30N 18°25' W 064°36'1 0.1
2016-Jul-19 09:18N 18°26' W 064°37'0 0.0
2016-Jul-19 07:19N 18°26' W 064°37'0 0.0
2016-Jul-19 06:22N 18°26' W 064°37'0 0.0
2016-Jul-19 03:22N 18°26' W 064°37'0 0.0
2016-Jul-18 08:05N 18°26' W 064°37'0 0.0
2016-Jul-18 07:29N 18°26' W 064°37'0 0.0
2016-Jul-18 06:33N 18°26' W 064°37'0 0.0
2016-Jul-18 05:26N 18°26' W 064°37'0 0.0
2016-Jul-18 04:05N 18°26' W 064°37'0 0.0
2016-Jul-17 09:25N 18°26' W 064°37'0 0.0
2016-Jul-17 07:15N 18°26' W 064°37'0 0.0
2016-Jul-17 06:31N 18°26' W 064°37'0 0.0
2016-Jul-17 04:21N 18°26' W 064°37'0 0.0
2016-Jul-17 03:33N 18°26' W 064°37'0 0.0
2016-Jul-17 00:25N 18°26' W 064°37'4 0.6
2016-Jul-16 17:33N 18°23' W 064°39'8 8.1
2016-Jul-16 16:33N 18°24' W 064°48'  

Dump ship's entire track history